Time;durP1;ratioP1;P1;durP2;ratioP2;P2;SDS_P1;SDS_P2;PMS_P1;PMS_P2;Temp;Humidity;BMP_temperature;BMP_pressure;BME280_temperature;BME280_humidity;BME280_pressure;Samples;Min_cycle;Max_cycle;Signal;HPM_P1;HPM_P2
2022/06/08 00:00:18;;;;;;;5.67;2.87;;;17.30;97.30;;;;;;5058348;28;20432;-82
2022/06/08 00:02:49;;;;;;;6.43;3.10;;;17.30;97.30;;;;;;5058111;28;20872;-82
2022/06/08 00:05:15;;;;;;;4.70;3.10;;;17.20;97.30;;;;;;5058868;28;20442;-82
2022/06/08 00:07:41;;;;;;;5.50;3.00;;;17.20;97.30;;;;;;5058047;28;20437;-82
2022/06/08 00:10:07;;;;;;;5.93;2.90;;;17.20;97.30;;;;;;5075912;28;20401;-82
2022/06/08 00:12:33;;;;;;;5.80;3.40;;;17.20;97.30;;;;;;5058399;28;20223;-82
2022/06/08 00:14:59;;;;;;;5.23;2.63;;;17.20;97.30;;;;;;5058405;28;20471;-82
2022/06/08 00:17:24;;;;;;;7.37;3.90;;;17.20;97.30;;;;;;5058649;28;20199;-82
2022/06/08 00:19:50;;;;;;;5.37;3.00;;;17.10;97.30;;;;;;5060280;28;20179;-82
2022/06/08 00:22:17;;;;;;;3.47;2.70;;;17.10;97.30;;;;;;5060110;28;20213;-83
2022/06/08 00:24:43;;;;;;;4.90;3.10;;;17.00;97.30;;;;;;5059824;28;20203;-82
2022/06/08 00:27:09;;;;;;;6.13;3.30;;;17.00;97.30;;;;;;5053366;28;20896;-82
2022/06/08 00:29:35;;;;;;;7.93;3.27;;;17.00;97.30;;;;;;5049639;28;20425;-82
2022/06/08 00:32:00;;;;;;;17.73;4.90;;;17.00;97.30;;;;;;5039284;28;20172;-82
2022/06/08 00:34:26;;;;;;;3.73;2.70;;;16.90;97.30;;;;;;5039450;28;20247;-82
2022/06/08 00:36:52;;;;;;;4.17;3.07;;;16.90;97.30;;;;;;5043748;28;20205;-82
2022/06/08 00:39:17;;;;;;;7.90;2.80;;;16.90;97.30;;;;;;5058637;28;20175;-82
2022/06/08 00:41:57;;;;;;;3.40;2.40;;;16.90;97.30;;;;;;5058894;28;20184;-82
2022/06/08 00:44:27;;;;;;;5.07;2.60;;;16.90;97.30;;;;;;5059178;28;20203;-82
2022/06/08 00:46:54;;;;;;;3.23;2.60;;;16.90;97.30;;;;;;5058942;28;20448;-82
2022/06/08 00:49:25;;;;;;;3.30;3.13;;;16.90;97.30;;;;;;5081211;28;20413;-81
2022/06/08 00:51:51;;;;;;;3.33;2.20;;;16.90;97.30;;;;;;5063586;28;20452;-82
2022/06/08 00:54:25;;;;;;;3.93;2.20;;;16.90;97.30;;;;;;5063894;28;20428;-81
2022/06/08 00:56:58;;;;;;;2.90;1.97;;;16.90;97.30;;;;;;5063320;28;20436;-82
2022/06/08 00:59:24;;;;;;;5.07;2.10;;;16.90;97.30;;;;;;5063556;28;20409;-81
2022/06/08 01:01:50;;;;;;;2.13;2.00;;;17.00;97.30;;;;;;5063070;28;20432;-82
2022/06/08 01:04:18;;;;;;;2.50;2.30;;;17.00;97.30;;;;;;5064519;28;20965;-82
2022/06/08 01:06:51;;;;;;;3.17;1.83;;;17.00;97.30;;;;;;5064250;28;20514;-82
2022/06/08 01:09:33;;;;;;;4.13;2.17;;;17.00;97.30;;;;;;5064770;28;20500;-82
2022/06/08 01:12:02;;;;;;;2.50;1.97;;;17.00;97.30;;;;;;5046862;28;1031161;-81
2022/06/08 01:14:28;;;;;;;2.40;2.20;;;17.00;97.30;;;;;;5065323;28;20663;-81
2022/06/08 01:17:01;;;;;;;2.93;2.17;;;17.10;97.30;;;;;;5065437;28;20471;-82
2022/06/08 01:19:27;;;;;;;2.90;2.20;;;17.10;97.30;;;;;;5064219;28;20463;-81
2022/06/08 01:21:55;;;;;;;3.53;2.40;;;17.00;97.30;;;;;;5063744;28;20429;-82
2022/06/08 01:24:22;;;;;;;4.53;2.20;;;17.00;97.30;;;;;;5063177;28;20849;-81
2022/06/08 01:27:20;;;;;;;2.13;1.93;;;17.00;97.30;;;;;;5063784;28;20455;-81
2022/06/08 01:30:13;;;;;;;2.73;1.83;;;17.00;97.30;;;;;;5063824;28;20418;-82
2022/06/08 01:33:01;;;;;;;2.70;2.30;;;17.00;97.30;;;;;;5063887;28;20449;-81
2022/06/08 01:35:46;;;;;;;2.37;2.03;;;17.00;97.30;;;;;;5063226;28;20512;-81
2022/06/08 01:38:26;;;;;;;3.33;2.17;;;17.00;97.30;;;;;;5063899;28;20446;-80
2022/06/08 01:41:37;;;;;;;2.30;2.00;;;17.00;97.30;;;;;;5064802;28;20472;-81
2022/06/08 01:44:14;;;;;;;4.10;1.90;;;17.00;97.30;;;;;;5063196;28;20598;-81
2022/06/08 01:47:02;;;;;;;2.40;1.93;;;17.00;97.30;;;;;;5063660;28;20444;-81
2022/06/08 01:49:51;;;;;;;2.70;2.10;;;16.90;97.30;;;;;;5063686;28;20470;-81
2022/06/08 01:52:44;;;;;;;3.47;2.37;;;16.90;97.30;;;;;;5064039;28;20797;-81
2022/06/08 01:55:37;;;;;;;3.80;1.93;;;16.90;97.30;;;;;;5063440;28;20520;-81
2022/06/08 01:58:29;;;;;;;1.93;1.80;;;16.90;97.30;;;;;;5063775;28;20445;-81
2022/06/08 02:01:40;;;;;;;2.20;2.00;;;16.80;97.30;;;;;;5064117;28;20424;-81
2022/06/08 02:04:25;;;;;;;3.13;2.03;;;16.80;97.30;;;;;;5025396;28;20421;-81
2022/06/08 02:06:58;;;;;;;2.60;1.80;;;16.80;97.30;;;;;;5063632;28;20434;-82
2022/06/08 02:09:35;;;;;;;2.03;1.90;;;16.90;97.30;;;;;;5060809;28;20435;-82
2022/06/08 02:12:11;;;;;;;2.93;1.70;;;16.90;97.30;;;;;;5060953;28;20500;-82
2022/06/08 02:14:44;;;;;;;1.80;1.70;;;16.90;97.30;;;;;;5061159;28;20409;-82
2022/06/08 02:17:26;;;;;;;2.37;1.80;;;16.90;97.30;;;;;;5062897;28;20433;-82
2022/06/08 02:20:01;;;;;;;2.30;2.10;;;16.90;97.30;;;;;;5061189;28;20425;-82
2022/06/08 02:22:39;;;;;;;2.17;2.03;;;16.80;97.30;;;;;;5061959;28;20474;-81
2022/06/08 02:25:32;;;;;;;2.83;2.00;;;16.80;97.30;;;;;;5063973;28;20459;-81
2022/06/08 02:28:27;;;;;;;2.30;2.10;;;16.70;97.30;;;;;;5060135;28;20530;-82
2022/06/08 02:31:09;;;;;;;3.50;2.50;;;16.70;97.30;;;;;;5041115;28;20958;-82
2022/06/08 02:36:28;;;;;;;2.80;2.27;;;16.60;97.30;;;;;;5077450;28;20718;-82
2022/06/08 02:39:00;;;;;;;2.83;1.90;;;16.60;97.30;;;;;;5059219;28;20448;-82
2022/06/08 02:41:27;;;;;;;2.40;1.90;;;16.50;97.30;;;;;;5059038;28;20409;-82
2022/06/08 02:43:59;;;;;;;3.73;2.17;;;16.50;97.30;;;;;;5059104;28;20427;-82
2022/06/08 02:46:38;;;;;;;1.70;1.60;;;16.50;97.30;;;;;;5058976;28;20449;-82
2022/06/08 02:49:09;;;;;;;2.77;1.93;;;16.50;97.30;;;;;;5058799;28;20398;-82
2022/06/08 02:51:35;;;;;;;1.97;1.67;;;16.50;97.30;;;;;;5059294;28;20409;-82
2022/06/08 02:54:06;;;;;;;2.00;1.80;;;16.50;97.30;;;;;;5064497;28;20402;-82
2022/06/08 02:56:47;;;;;;;3.17;2.57;;;16.50;97.30;;;;;;5064674;28;20433;-82
2022/06/08 02:59:47;;;;;;;2.53;2.10;;;16.60;97.30;;;;;;5065626;28;20436;-82
2022/06/08 03:02:25;;;;;;;2.23;1.87;;;16.60;97.30;;;;;;5066080;28;20406;-81
2022/06/08 03:05:03;;;;;;;1.80;1.60;;;16.50;97.30;;;;;;5064473;28;20448;-81
2022/06/08 03:07:34;;;;;;;4.23;2.00;;;16.50;97.30;;;;;;5064995;28;20889;-81
2022/06/08 03:10:05;;;;;;;2.40;1.90;;;16.50;97.30;;;;;;5063897;28;20401;-81
2022/06/08 03:12:36;;;;;;;4.43;2.27;;;16.40;97.30;;;;;;5064999;28;20746;-81
2022/06/08 03:15:04;;;;;;;3.00;2.20;;;16.40;97.30;;;;;;5064621;28;20405;-81
2022/06/08 03:17:32;;;;;;;3.30;1.80;;;16.30;97.30;;;;;;5063748;28;20442;-82
2022/06/08 03:19:59;;;;;;;2.73;2.00;;;16.30;97.30;;;;;;5064336;28;20424;-82
2022/06/08 03:22:25;;;;;;;2.33;2.20;;;16.20;97.30;;;;;;5065660;28;20427;-81
2022/06/08 03:24:51;;;;;;;2.63;2.00;;;16.20;97.30;;;;;;5083250;28;20456;-81
2022/06/08 03:27:17;;;;;;;2.43;2.00;;;16.10;97.30;;;;;;5065340;28;20434;-81
2022/06/08 03:29:42;;;;;;;4.10;3.70;;;16.00;97.30;;;;;;5062959;28;20202;-81
2022/06/08 03:32:08;;;;;;;2.60;1.87;;;16.00;97.30;;;;;;5060892;28;20660;-81
2022/06/08 03:34:34;;;;;;;2.97;2.30;;;16.00;97.30;;;;;;5066025;28;20228;-80
2022/06/08 03:37:00;;;;;;;2.13;2.03;;;15.90;97.30;;;;;;5066222;28;20223;-81
2022/06/08 03:39:26;;;;;;;3.33;2.10;;;15.90;97.30;;;;;;5066268;28;20209;-81
2022/06/08 03:41:51;;;;;;;3.30;2.20;;;15.90;97.30;;;;;;5066532;28;20481;-81
2022/06/08 03:44:17;;;;;;;4.70;2.47;;;15.90;97.30;;;;;;5067813;28;20484;-81
2022/06/08 03:46:57;;;;;;;4.70;2.40;;;15.90;97.30;;;;;;5067364;28;20191;-81
2022/06/08 03:49:25;;;;;;;2.20;2.07;;;15.90;97.30;;;;;;5067746;28;20175;-82
2022/06/08 03:51:54;;;;;;;2.30;2.00;;;15.90;97.30;;;;;;5067161;28;20414;-81
2022/06/08 03:54:28;;;;;;;5.23;2.47;;;15.90;97.30;;;;;;5066296;28;20421;-81
2022/06/08 03:56:58;;;;;;;3.70;2.40;;;15.80;97.30;;;;;;5065969;28;20536;-81
2022/06/08 03:59:28;;;;;;;3.00;1.70;;;15.80;97.30;;;;;;5065527;28;20421;-81
2022/06/08 04:01:54;;;;;;;2.70;2.10;;;15.70;97.30;;;;;;5065461;28;20443;-81
2022/06/08 04:04:19;;;;;;;4.57;2.37;;;15.70;97.30;;;;;;5054775;28;20454;-81
2022/06/08 04:06:47;;;;;;;3.60;2.63;;;15.70;97.30;;;;;;5053835;28;20191;-81
2022/06/08 04:09:18;;;;;;;2.33;2.00;;;15.70;97.30;;;;;;5053953;28;20190;-81
2022/06/08 04:11:46;;;;;;;2.37;2.20;;;15.70;97.30;;;;;;5056942;28;20520;-82
2022/06/08 04:14:12;;;;;;;4.63;2.53;;;15.70;97.30;;;;;;5053933;28;20417;-81
2022/06/08 04:16:38;;;;;;;3.10;2.03;;;15.70;97.30;;;;;;5051207;28;20430;-81
2022/06/08 04:19:04;;;;;;;4.60;2.60;;;15.70;97.30;;;;;;5057220;28;20699;-81
2022/06/08 04:21:30;;;;;;;3.37;2.37;;;15.70;97.30;;;;;;5051749;28;20167;-81
2022/06/08 04:24:00;;;;;;;3.17;2.30;;;15.70;97.30;;;;;;5055862;28;20957;-81
2022/06/08 04:26:28;;;;;;;8.27;2.57;;;15.70;97.30;;;;;;5055796;28;20282;-82
2022/06/08 04:28:55;;;;;;;5.40;2.93;;;15.80;97.30;;;;;;5076793;28;20416;-81
2022/06/08 04:31:21;;;;;;;4.20;2.30;;;15.80;97.30;;;;;;5061106;28;20440;-81
2022/06/08 04:33:46;;;;;;;2.87;2.60;;;15.80;97.30;;;;;;5061150;28;20401;-81
2022/06/08 04:36:14;;;;;;;7.43;2.33;;;15.80;97.30;;;;;;5061154;28;20439;-81
2022/06/08 04:38:40;;;;;;;3.03;2.17;;;15.90;97.30;;;;;;5060610;28;20190;-82
2022/06/08 04:41:07;;;;;;;6.57;3.07;;;15.90;97.30;;;;;;5058064;28;20411;-82
2022/06/08 04:43:33;;;;;;;4.63;2.60;;;15.90;97.30;;;;;;5060740;28;20418;-81
2022/06/08 04:45:58;;;;;;;3.87;2.70;;;15.90;97.30;;;;;;5060197;28;20492;-81
2022/06/08 04:48:24;;;;;;;6.30;2.90;;;16.00;97.30;;;;;;5060817;28;20183;-82
2022/06/08 04:50:50;;;;;;;5.23;2.47;;;16.00;97.30;;;;;;5053389;28;20176;-81
2022/06/08 04:53:16;;;;;;;4.20;3.37;;;16.00;97.30;;;;;;5059966;28;20175;-81
2022/06/08 04:55:41;;;;;;;3.93;2.33;;;16.10;97.30;;;;;;5072335;28;20183;-81
2022/06/08 04:58:07;;;;;;;7.40;3.10;;;16.10;97.30;;;;;;5065683;28;20181;-81
2022/06/08 05:00:33;;;;;;;2.73;2.40;;;16.20;97.30;;;;;;5064511;28;20452;-82
2022/06/08 05:02:59;;;;;;;3.87;2.20;;;16.20;97.30;;;;;;5062904;28;20172;-82
2022/06/08 05:05:29;;;;;;;3.50;2.37;;;16.30;97.30;;;;;;5064468;28;20305;-82
2022/06/08 05:07:56;;;;;;;6.00;2.40;;;16.30;97.30;;;;;;5063656;28;20195;-82
2022/06/08 05:10:25;;;;;;;5.47;2.63;;;16.40;97.30;;;;;;5055203;28;20785;-81
2022/06/08 05:12:50;;;;;;;7.13;2.13;;;16.40;97.30;;;;;;5055525;28;20874;-81
2022/06/08 05:15:28;;;;;;;5.40;2.67;;;16.50;97.30;;;;;;5063413;28;20428;-81
2022/06/08 05:17:55;;;;;;;6.43;2.60;;;16.60;97.30;;;;;;5064538;28;20568;-81
2022/06/08 05:20:21;;;;;;;5.20;2.50;;;16.60;97.30;;;;;;5051464;28;20780;-81
2022/06/08 05:22:48;;;;;;;8.80;2.33;;;16.70;97.30;;;;;;5051674;28;20644;-81
2022/06/08 05:25:20;;;;;;;2.90;2.40;;;16.70;97.30;;;;;;5073959;28;20454;-81
2022/06/08 05:27:46;;;;;;;4.30;2.10;;;16.80;97.30;;;;;;5060889;28;20437;-81
2022/06/08 05:30:12;;;;;;;3.47;2.40;;;16.90;97.30;;;;;;5056804;28;20452;-82
2022/06/08 05:32:38;;;;;;;3.20;2.30;;;17.00;97.30;;;;;;5058647;28;20410;-82
2022/06/08 05:35:05;;;;;;;4.00;1.90;;;17.10;97.30;;;;;;5063728;28;20493;-82
2022/06/08 05:37:31;;;;;;;3.80;2.10;;;17.20;97.30;;;;;;5080161;28;20460;-81
2022/06/08 05:39:57;;;;;;;2.90;2.17;;;17.30;97.30;;;;;;5063498;28;20413;-81
2022/06/08 05:42:23;;;;;;;5.23;1.83;;;17.40;97.30;;;;;;5082315;28;20186;-81
2022/06/08 05:44:49;;;;;;;3.00;2.30;;;17.40;97.30;;;;;;5064787;28;20194;-82
2022/06/08 05:47:16;;;;;;;4.90;2.10;;;17.50;97.30;;;;;;5063976;28;20437;-81
2022/06/08 05:49:43;;;;;;;6.43;2.50;;;17.60;97.30;;;;;;5083108;28;20414;-82
2022/06/08 05:52:09;;;;;;;3.90;2.60;;;17.60;97.30;;;;;;5064599;28;20413;-82
2022/06/08 05:54:35;;;;;;;3.50;2.50;;;17.70;97.30;;;;;;5063614;28;20977;-81
2022/06/08 05:57:01;;;;;;;2.60;1.83;;;17.80;97.30;;;;;;5064240;28;20434;-81
2022/06/08 05:59:27;;;;;;;2.37;2.23;;;17.80;97.30;;;;;;5064312;28;20428;-81
2022/06/08 06:01:52;;;;;;;3.27;2.20;;;17.90;97.30;;;;;;5063824;28;20447;-81
2022/06/08 06:04:19;;;;;;;3.00;2.23;;;18.00;97.30;;;;;;5063252;28;20179;-82
2022/06/08 06:06:48;;;;;;;3.83;2.20;;;18.10;97.30;;;;;;5063882;28;20225;-82
2022/06/08 06:09:16;;;;;;;2.90;2.10;;;18.10;97.30;;;;;;5082498;28;20873;-81
2022/06/08 06:11:42;;;;;;;2.97;2.03;;;18.20;97.30;;;;;;5064482;28;20480;-82
2022/06/08 06:14:08;;;;;;;6.90;2.30;;;18.20;97.30;;;;;;5065722;28;20409;-81
2022/06/08 06:16:34;;;;;;;2.90;1.90;;;18.30;97.30;;;;;;5063407;28;20195;-82
2022/06/08 06:19:00;;;;;;;3.60;2.83;;;18.30;97.30;;;;;;5064144;28;20425;-81
2022/06/08 06:21:27;;;;;;;2.80;2.03;;;18.40;97.30;;;;;;5063516;28;20429;-82
2022/06/08 06:23:57;;;;;;;2.30;2.00;;;18.40;97.30;;;;;;5064600;28;20179;-82
2022/06/08 06:26:26;;;;;;;2.33;1.60;;;18.50;97.30;;;;;;5065244;28;20476;-81
2022/06/08 06:28:52;;;;;;;3.00;1.93;;;18.60;97.30;;;;;;5064298;28;20434;-79
2022/06/08 06:31:22;;;;;;;5.90;1.97;;;18.60;97.30;;;;;;5063875;28;20903;-80
2022/06/08 06:33:48;;;;;;;5.83;2.80;;;18.70;97.30;;;;;;5080188;28;20171;-82
2022/06/08 06:36:15;;;;;;;2.40;2.00;;;18.80;97.30;;;;;;5061436;28;20438;-83
2022/06/08 06:38:40;;;;;;;2.47;2.10;;;18.80;97.30;;;;;;5061291;28;20512;-81
2022/06/08 06:41:06;;;;;;;4.23;2.33;;;18.80;97.30;;;;;;5062597;28;20472;-83
2022/06/08 06:43:32;;;;;;;2.30;2.07;;;18.90;97.30;;;;;;5061650;28;20175;-82
2022/06/08 06:45:58;;;;;;;3.50;2.30;;;18.90;97.30;;;;;;5060945;28;20911;-81
2022/06/08 06:48:25;;;;;;;5.83;2.33;;;19.00;97.30;;;;;;5062212;28;20413;-81
2022/06/08 06:50:51;;;;;;;8.20;2.40;;;19.10;97.30;;;;;;5058690;28;20180;-81
2022/06/08 06:53:17;;;;;;;5.70;1.90;;;19.10;97.30;;;;;;5052687;28;20434;-81
2022/06/08 06:55:43;;;;;;;3.97;2.20;;;19.20;97.30;;;;;;5062360;28;20247;-84
2022/06/08 06:58:08;;;;;;;6.53;2.37;;;19.30;97.30;;;;;;5065455;28;20207;-81
2022/06/08 07:00:34;;;;;;;3.20;2.40;;;19.30;97.30;;;;;;5044326;28;20206;-81
2022/06/08 07:03:00;;;;;;;5.03;3.67;;;19.40;97.30;;;;;;5063257;28;20187;-81
2022/06/08 07:05:30;;;;;;;2.50;1.87;;;19.40;97.30;;;;;;5062461;28;20528;-81
2022/06/08 07:07:56;;;;;;;2.33;2.23;;;19.40;97.30;;;;;;5063291;28;20441;-81
2022/06/08 07:10:22;;;;;;;10.43;2.10;;;19.50;97.30;;;;;;5061211;28;20417;-80
2022/06/08 07:12:48;;;;;;;2.87;2.20;;;19.50;97.30;;;;;;5058901;28;20228;-80
2022/06/08 07:15:17;;;;;;;8.13;2.10;;;19.60;97.30;;;;;;5060478;28;20179;-80
2022/06/08 07:17:42;;;;;;;5.07;2.43;;;19.60;97.30;;;;;;5060002;28;20444;-80
2022/06/08 07:20:10;;;;;;;4.80;2.50;;;19.60;97.30;;;;;;5078087;28;20414;-80
2022/06/08 07:22:36;;;;;;;2.90;2.33;;;19.60;97.30;;;;;;5060163;28;20179;-80
2022/06/08 07:25:03;;;;;;;2.83;2.30;;;19.70;97.30;;;;;;5057946;28;20459;-80
2022/06/08 07:27:29;;;;;;;3.83;2.20;;;19.80;97.30;;;;;;5056131;28;20440;-80
2022/06/08 07:29:55;;;;;;;2.87;2.00;;;19.80;97.30;;;;;;5058552;28;20413;-80
2022/06/08 07:32:20;;;;;;;4.20;2.20;;;20.00;97.30;;;;;;5075810;28;20163;-80
2022/06/08 07:34:46;;;;;;;1.70;1.60;;;20.10;97.10;;;;;;5058658;28;20171;-80
2022/06/08 07:37:12;;;;;;;2.23;2.10;;;20.20;97.30;;;;;;5058075;28;20195;-80
2022/06/08 07:39:39;;;;;;;2.80;1.70;;;20.30;97.10;;;;;;5075568;28;20225;-80
2022/06/08 07:42:05;;;;;;;2.00;1.73;;;20.40;96.40;;;;;;5057485;28;20202;-80
2022/06/08 07:44:30;;;;;;;2.27;2.07;;;20.50;95.30;;;;;;5057613;28;20449;-80
2022/06/08 07:46:57;;;;;;;2.77;2.10;;;20.60;94.80;;;;;;5057255;28;20444;-80
2022/06/08 07:49:49;;;;;;;1.90;1.60;;;20.80;95.20;;;;;;5056788;28;20179;-80
2022/06/08 07:52:21;;;;;;;4.13;2.57;;;20.90;94.50;;;;;;5075114;28;20439;-80
2022/06/08 07:54:48;;;;;;;2.30;1.90;;;20.90;93.80;;;;;;5057104;28;20436;-80
2022/06/08 07:57:23;;;;;;;2.70;1.80;;;21.00;94.60;;;;;;5057358;28;20471;-80
2022/06/08 07:59:49;;;;;;;2.00;1.70;;;21.10;94.20;;;;;;5057293;28;21140;-80
2022/06/08 08:02:16;;;;;;;2.43;1.30;;;21.20;94.30;;;;;;5058987;28;20421;-80
2022/06/08 08:04:43;;;;;;;2.93;2.27;;;21.30;93.40;;;;;;5057418;28;20460;-81
2022/06/08 08:07:09;;;;;;;1.70;1.57;;;21.50;93.60;;;;;;5058411;28;20445;-80
2022/06/08 08:09:35;;;;;;;6.50;2.23;;;21.50;92.60;;;;;;5058235;28;20424;-80
2022/06/08 08:12:02;;;;;;;2.33;2.00;;;21.50;91.60;;;;;;5058139;28;20465;-80
2022/06/08 08:14:27;;;;;;;2.00;1.33;;;21.40;91.80;;;;;;5057667;28;20186;-80
2022/06/08 08:16:53;;;;;;;1.60;1.40;;;21.40;91.90;;;;;;5057477;28;20800;-81
2022/06/08 08:19:22;;;;;;;1.43;1.33;;;21.40;91.00;;;;;;5058258;28;20484;-80
2022/06/08 08:21:49;;;;;;;1.37;1.30;;;21.50;90.30;;;;;;5058755;28;20671;-80
2022/06/08 08:24:15;;;;;;;1.27;1.20;;;21.50;90.70;;;;;;5059162;28;20425;-80
2022/06/08 08:26:43;;;;;;;2.20;1.30;;;21.50;90.90;;;;;;5059634;28;20441;-81
2022/06/08 08:29:09;;;;;;;1.57;1.50;;;21.50;90.60;;;;;;5057967;28;20270;-80
2022/06/08 08:31:34;;;;;;;3.67;1.40;;;21.60;90.90;;;;;;5058403;28;20457;-80
2022/06/08 08:34:00;;;;;;;3.63;1.40;;;21.60;91.10;;;;;;5059408;28;20553;-80
2022/06/08 08:36:27;;;;;;;1.97;1.20;;;21.60;89.50;;;;;;5059834;28;20668;-80
2022/06/08 08:38:53;;;;;;;1.43;1.30;;;21.70;90.30;;;;;;5058333;28;20706;-80
2022/06/08 08:44:27;;;;;;;2.27;1.43;;;21.80;90.00;;;;;;5075672;28;20400;-80
2022/06/08 08:47:24;;;;;;;1.30;1.20;;;21.90;90.60;;;;;;5058175;28;20544;-80
2022/06/08 08:50:16;;;;;;;1.77;1.40;;;22.00;89.80;;;;;;5058706;28;20782;-80
2022/06/08 08:52:55;;;;;;;1.50;1.30;;;22.00;89.10;;;;;;5058195;28;20409;-80
2022/06/08 08:55:38;;;;;;;1.40;1.30;;;22.10;89.20;;;;;;5058346;28;20420;-80
2022/06/08 08:58:12;;;;;;;1.40;1.30;;;22.20;88.70;;;;;;5058580;28;20440;-80
2022/06/08 09:00:52;;;;;;;1.37;1.37;;;22.20;87.90;;;;;;5058973;28;20409;-80
2022/06/08 09:03:24;;;;;;;1.80;1.70;;;22.30;89.10;;;;;;5077547;28;20503;-80
2022/06/08 09:05:54;;;;;;;1.57;1.20;;;22.40;89.80;;;;;;5057494;28;20511;-80
2022/06/08 09:08:22;;;;;;;1.90;1.30;;;22.50;89.50;;;;;;5059433;28;20445;-80
2022/06/08 09:10:49;;;;;;;1.57;1.40;;;22.60;88.80;;;;;;5061695;28;20413;-80
2022/06/08 09:13:29;;;;;;;1.30;1.23;;;22.80;87.70;;;;;;5062204;28;20468;-80
2022/06/08 09:15:57;;;;;;;3.90;1.60;;;22.80;86.70;;;;;;5061152;28;20416;-80
2022/06/08 09:18:39;;;;;;;1.80;1.23;;;22.80;87.10;;;;;;5079643;28;20442;-81
2022/06/08 09:21:30;;;;;;;1.47;1.30;;;22.90;87.80;;;;;;5061485;28;20428;-83
2022/06/08 09:24:21;;;;;;;2.50;1.53;;;23.00;85.70;;;;;;5079690;28;20499;-80
2022/06/08 09:26:54;;;;;;;1.53;1.40;;;23.10;85.90;;;;;;5061551;28;20463;-81
2022/06/08 09:29:31;;;;;;;1.83;1.50;;;23.20;86.70;;;;;;5080640;28;20409;-81
2022/06/08 09:31:56;;;;;;;4.63;2.00;;;23.30;86.80;;;;;;5061606;28;20791;-80
2022/06/08 09:34:28;;;;;;;1.43;1.37;;;23.40;85.50;;;;;;5062916;28;20588;-81
2022/06/08 09:37:13;;;;;;;2.03;1.40;;;23.40;85.90;;;;;;5063455;28;20293;-81
2022/06/08 09:39:41;;;;;;;1.70;1.30;;;23.50;86.20;;;;;;5063424;28;20410;-81
2022/06/08 09:42:22;;;;;;;1.40;1.30;;;23.60;85.60;;;;;;5062938;28;20556;-80
2022/06/08 09:45:28;;;;;;;1.50;1.47;;;23.60;84.70;;;;;;5079489;28;21039;-81
2022/06/08 09:51:25;;;;;;;1.47;1.20;;;23.70;85.60;;;;;;5081558;28;20404;-80
2022/06/08 09:54:06;;;;;;;1.50;1.20;;;23.80;84.40;;;;;;5064440;28;20405;-81
2022/06/08 09:56:50;;;;;;;1.20;1.10;;;23.90;83.10;;;;;;5061440;28;20437;-80
2022/06/08 09:59:25;;;;;;;2.90;1.53;;;23.90;82.50;;;;;;5080665;28;20408;-80
2022/06/08 10:01:58;;;;;;;5.60;1.27;;;24.00;82.10;;;;;;5062894;28;20432;-81
2022/06/08 10:04:45;;;;;;;2.70;1.13;;;24.10;82.90;;;;;;5062432;28;20401;-80
2022/06/08 10:07:27;;;;;;;3.30;1.30;;;24.20;81.50;;;;;;5061879;28;20429;-81
2022/06/08 10:09:59;;;;;;;1.43;1.30;;;24.30;81.20;;;;;;5062443;28;20441;-80
2022/06/08 10:12:57;;;;;;;2.93;1.40;;;24.40;82.30;;;;;;5062057;28;20465;-80
2022/06/08 10:15:28;;;;;;;1.20;1.10;;;24.50;81.50;;;;;;5061375;28;20951;-81
2022/06/08 10:18:20;;;;;;;2.17;1.70;;;24.70;82.50;;;;;;5061152;28;20544;-80
2022/06/08 10:20:59;;;;;;;1.40;1.30;;;24.80;81.70;;;;;;5077654;28;20410;-80
2022/06/08 10:23:45;;;;;;;2.20;1.27;;;24.80;82.60;;;;;;5061055;28;20443;-80
2022/06/08 10:26:34;;;;;;;2.40;1.30;;;24.90;80.60;;;;;;5060126;28;21076;-80
2022/06/08 10:29:13;;;;;;;1.37;1.30;;;25.00;82.20;;;;;;5060855;28;20413;-80
2022/06/08 10:31:56;;;;;;;2.63;1.30;;;25.10;78.30;;;;;;5061210;28;20417;-81
2022/06/08 10:34:27;;;;;;;1.27;1.10;;;25.10;78.90;;;;;;5079528;28;20417;-80
2022/06/08 10:36:57;;;;;;;3.43;1.77;;;25.20;78.50;;;;;;5060391;28;20467;-80
2022/06/08 10:39:24;;;;;;;2.27;1.20;;;25.20;79.10;;;;;;5060870;28;20440;-80
2022/06/08 10:45:19;;;;;;;1.90;1.50;;;25.20;78.20;;;;;;5078956;28;20520;-81
2022/06/08 10:48:10;;;;;;;4.53;1.80;;;25.20;79.20;;;;;;5061378;28;20441;-81
2022/06/08 10:50:44;;;;;;;2.83;1.60;;;25.40;78.40;;;;;;5060969;28;20409;-80
2022/06/08 10:56:25;;;;;;;4.37;1.27;;;25.50;78.10;;;;;;5079281;28;20938;-81
2022/06/08 10:58:55;;;;;;;5.23;1.30;;;25.50;77.80;;;;;;5061038;28;20421;-80
2022/06/08 11:01:47;;;;;;;1.67;1.40;;;25.40;78.20;;;;;;5061280;28;20422;-80
2022/06/08 11:04:29;;;;;;;1.30;1.20;;;25.40;80.10;;;;;;5061483;28;20436;-81
2022/06/08 11:07:02;;;;;;;3.30;1.40;;;25.40;79.70;;;;;;5059951;28;20450;-80
2022/06/08 11:09:34;;;;;;;2.73;1.90;;;25.50;80.40;;;;;;5060471;28;20443;-81
2022/06/08 11:12:01;;;;;;;2.90;1.70;;;25.50;80.00;;;;;;5078901;28;20469;-80
2022/06/08 11:14:31;;;;;;;4.90;1.20;;;25.50;79.00;;;;;;5060224;28;20425;-81
2022/06/08 11:17:05;;;;;;;2.70;1.57;;;25.40;78.20;;;;;;5060437;28;20439;-80
2022/06/08 11:19:33;;;;;;;1.30;1.20;;;25.50;78.90;;;;;;5060081;28;20420;-80
2022/06/08 11:22:10;;;;;;;1.70;1.50;;;25.40;78.70;;;;;;5060003;28;20935;-80
2022/06/08 11:24:39;;;;;;;1.77;1.50;;;25.40;79.10;;;;;;5059892;28;20448;-80
2022/06/08 11:27:11;;;;;;;2.47;1.83;;;25.40;79.30;;;;;;5059699;28;20437;-80
2022/06/08 11:30:08;;;;;;;1.50;1.40;;;25.40;78.50;;;;;;5062217;28;20441;-80
2022/06/08 11:32:34;;;;;;;3.00;1.30;;;25.60;78.50;;;;;;5029584;28;20422;-80
2022/06/08 11:35:12;;;;;;;1.80;1.57;;;25.60;78.90;;;;;;5060557;28;20827;-80
2022/06/08 11:37:53;;;;;;;4.80;1.60;;;25.80;78.40;;;;;;5060830;28;20203;-80
2022/06/08 11:40:27;;;;;;;1.50;1.40;;;26.00;77.60;;;;;;5060448;28;20447;-80
2022/06/08 11:43:15;;;;;;;3.57;1.53;;;26.10;76.80;;;;;;5060514;28;20801;-80
2022/06/08 11:45:54;;;;;;;3.53;1.70;;;26.30;78.80;;;;;;5059908;28;20449;-80
2022/06/08 11:48:22;;;;;;;2.10;1.30;;;26.30;75.40;;;;;;5060317;28;20449;-80
2022/06/08 11:50:58;;;;;;;1.50;1.37;;;26.30;76.50;;;;;;5059583;28;20417;-80
2022/06/08 11:53:34;;;;;;;3.73;1.60;;;26.30;76.30;;;;;;5077794;28;20409;-80
2022/06/08 11:56:21;;;;;;;1.87;1.70;;;26.40;78.00;;;;;;5058899;28;20448;-80
2022/06/08 11:58:50;;;;;;;1.97;1.70;;;26.50;77.70;;;;;;5059143;28;20923;-80
2022/06/08 12:01:28;;;;;;;1.80;1.70;;;26.60;79.00;;;;;;5078102;28;20543;-81
2022/06/08 12:04:24;;;;;;;2.20;1.60;;;26.50;76.50;;;;;;5059174;28;20792;-80
2022/06/08 12:06:51;;;;;;;2.67;1.50;;;26.30;76.50;;;;;;5059712;28;20449;-80
2022/06/08 12:09:37;;;;;;;1.87;1.60;;;26.30;75.40;;;;;;5059142;28;20421;-81
2022/06/08 12:12:14;;;;;;;2.23;1.43;;;26.50;75.50;;;;;;5060157;28;20480;-80
2022/06/08 12:14:41;;;;;;;1.57;1.50;;;26.60;76.10;;;;;;5060446;28;20488;-80
2022/06/08 12:17:13;;;;;;;2.60;1.43;;;26.70;75.50;;;;;;5058981;28;20430;-80
2022/06/08 12:19:57;;;;;;;1.97;1.60;;;26.50;73.20;;;;;;5058388;28;20421;-80
2022/06/08 12:22:34;;;;;;;5.10;1.70;;;26.50;75.20;;;;;;5077592;28;20432;-80
2022/06/08 12:25:18;;;;;;;2.60;1.50;;;26.40;74.90;;;;;;5058756;28;20463;-80
2022/06/08 12:27:56;;;;;;;1.60;1.50;;;26.60;76.90;;;;;;5076652;28;20534;-80
2022/06/08 12:30:26;;;;;;;1.50;1.50;;;26.80;74.90;;;;;;5059468;28;20416;-80
2022/06/08 12:32:55;;;;;;;1.57;1.40;;;26.90;73.60;;;;;;5059413;28;20424;-81
2022/06/08 12:35:29;;;;;;;1.80;1.63;;;26.90;73.90;;;;;;5059054;28;20513;-80
2022/06/08 12:38:13;;;;;;;5.13;1.80;;;26.80;73.80;;;;;;5060088;28;20508;-81
2022/06/08 12:40:39;;;;;;;1.80;1.70;;;26.60;74.40;;;;;;5058743;28;20418;-80
2022/06/08 12:43:09;;;;;;;1.60;1.50;;;26.50;74.00;;;;;;5077256;28;20462;-81
2022/06/08 12:45:39;;;;;;;3.90;2.13;;;26.40;73.70;;;;;;5063470;28;20492;-80
2022/06/08 12:48:37;;;;;;;5.40;1.80;;;26.40;74.10;;;;;;5063356;28;20409;-80
2022/06/08 12:51:32;;;;;;;3.33;1.70;;;26.40;72.90;;;;;;5063193;28;20493;-80
2022/06/08 12:54:01;;;;;;;2.40;2.00;;;26.20;74.00;;;;;;5081419;28;20406;-80
2022/06/08 12:56:28;;;;;;;2.23;1.63;;;26.10;73.50;;;;;;5082221;28;20425;-81
2022/06/08 12:58:56;;;;;;;2.03;1.77;;;26.10;73.90;;;;;;5064577;28;20473;-80
2022/06/08 13:01:29;;;;;;;2.47;1.60;;;26.00;74.10;;;;;;5063672;28;20471;-80
2022/06/08 13:03:58;;;;;;;2.63;1.80;;;26.00;74.70;;;;;;5063023;28;20427;-81
2022/06/08 13:06:24;;;;;;;6.40;2.13;;;25.90;75.00;;;;;;5062586;28;20468;-82
2022/06/08 13:08:51;;;;;;;2.73;1.63;;;25.90;75.10;;;;;;5063276;28;20466;-81
2022/06/08 13:11:20;;;;;;;4.60;1.90;;;26.00;74.80;;;;;;5063828;28;20442;-81
2022/06/08 13:13:47;;;;;;;2.33;1.83;;;26.10;74.70;;;;;;5062150;28;20906;-80
2022/06/08 13:16:25;;;;;;;2.27;1.50;;;26.30;73.70;;;;;;5063060;28;20986;-81
2022/06/08 13:18:52;;;;;;;1.83;1.67;;;26.50;74.50;;;;;;5063740;28;20949;-81
2022/06/08 13:21:19;;;;;;;4.03;1.67;;;26.60;73.10;;;;;;5062356;28;20467;-80
2022/06/08 13:23:44;;;;;;;3.03;1.80;;;26.70;72.30;;;;;;5063233;28;20934;-81
2022/06/08 13:26:23;;;;;;;2.97;1.87;;;26.70;72.70;;;;;;5063007;28;20469;-80